sensor_id;sensor_type;location;lat;lon;timestamp;P1;durP1;ratioP1;P2;durP2;ratioP2
71777;SDS011;59609;52.430;4.668;2022-11-06T00:00:14;9.10;;;4.38;;
71777;SDS011;59609;52.430;4.668;2022-11-06T00:02:41;7.88;;;3.35;;
71777;SDS011;59609;52.430;4.668;2022-11-06T00:05:07;11.40;;;3.92;;
71777;SDS011;59609;52.430;4.668;2022-11-06T00:07:51;8.00;;;4.13;;
71777;SDS011;59609;52.430;4.668;2022-11-06T00:10:16;11.13;;;4.00;;
71777;SDS011;59609;52.430;4.668;2022-11-06T00:12:42;7.38;;;3.83;;
71777;SDS011;59609;52.430;4.668;2022-11-06T00:15:08;10.68;;;3.72;;
71777;SDS011;59609;52.430;4.668;2022-11-06T00:17:34;10.65;;;4.45;;
71777;SDS011;59609;52.430;4.668;2022-11-06T00:19:59;9.13;;;4.25;;
71777;SDS011;59609;52.430;4.668;2022-11-06T00:22:24;12.63;;;4.03;;
71777;SDS011;59609;52.430;4.668;2022-11-06T00:24:50;7.70;;;3.90;;
71777;SDS011;59609;52.430;4.668;2022-11-06T00:27:15;9.13;;;4.03;;
71777;SDS011;59609;52.430;4.668;2022-11-06T00:29:40;10.93;;;4.28;;
71777;SDS011;59609;52.430;4.668;2022-11-06T00:32:06;13.65;;;5.20;;
71777;SDS011;59609;52.430;4.668;2022-11-06T00:34:31;10.10;;;4.25;;
71777;SDS011;59609;52.430;4.668;2022-11-06T00:36:57;7.60;;;3.80;;
71777;SDS011;59609;52.430;4.668;2022-11-06T00:39:22;9.15;;;4.47;;
71777;SDS011;59609;52.430;4.668;2022-11-06T00:41:47;9.40;;;4.28;;
71777;SDS011;59609;52.430;4.668;2022-11-06T00:44:13;10.93;;;5.13;;
71777;SDS011;59609;52.430;4.668;2022-11-06T00:46:38;14.73;;;4.18;;
71777;SDS011;59609;52.430;4.668;2022-11-06T00:49:03;11.60;;;4.82;;
71777;SDS011;59609;52.430;4.668;2022-11-06T00:51:30;10.50;;;4.90;;
71777;SDS011;59609;52.430;4.668;2022-11-06T00:54:00;10.80;;;4.68;;
71777;SDS011;59609;52.430;4.668;2022-11-06T00:56:28;16.98;;;4.80;;
71777;SDS011;59609;52.430;4.668;2022-11-06T00:58:55;15.35;;;4.93;;
71777;SDS011;59609;52.430;4.668;2022-11-06T01:01:26;8.70;;;5.25;;
71777;SDS011;59609;52.430;4.668;2022-11-06T01:03:54;15.73;;;6.05;;
71777;SDS011;59609;52.430;4.668;2022-11-06T01:06:25;12.82;;;5.85;;
71777;SDS011;59609;52.430;4.668;2022-11-06T01:08:52;9.77;;;6.13;;
71777;SDS011;59609;52.430;4.668;2022-11-06T01:11:22;14.32;;;5.93;;
71777;SDS011;59609;52.430;4.668;2022-11-06T01:13:51;11.10;;;6.55;;
71777;SDS011;59609;52.430;4.668;2022-11-06T01:16:19;11.32;;;6.15;;
71777;SDS011;59609;52.430;4.668;2022-11-06T01:18:45;17.08;;;6.57;;
71777;SDS011;59609;52.430;4.668;2022-11-06T01:21:13;15.18;;;6.82;;
71777;SDS011;59609;52.430;4.668;2022-11-06T01:23:41;17.77;;;7.60;;
71777;SDS011;59609;52.430;4.668;2022-11-06T01:26:08;14.20;;;7.32;;
71777;SDS011;59609;52.430;4.668;2022-11-06T01:28:35;14.30;;;7.22;;
71777;SDS011;59609;52.430;4.668;2022-11-06T01:31:03;18.83;;;7.15;;
71777;SDS011;59609;52.430;4.668;2022-11-06T01:33:30;10.25;;;5.93;;
71777;SDS011;59609;52.430;4.668;2022-11-06T01:35:55;10.95;;;6.43;;
71777;SDS011;59609;52.430;4.668;2022-11-06T01:38:20;15.13;;;7.88;;
71777;SDS011;59609;52.430;4.668;2022-11-06T01:40:46;13.68;;;7.75;;
71777;SDS011;59609;52.430;4.668;2022-11-06T01:45:49;13.30;;;7.07;;
71777;SDS011;59609;52.430;4.668;2022-11-06T01:48:17;11.68;;;6.93;;
71777;SDS011;59609;52.430;4.668;2022-11-06T01:50:45;15.23;;;8.20;;
71777;SDS011;59609;52.430;4.668;2022-11-06T01:53:15;11.82;;;8.70;;
71777;SDS011;59609;52.430;4.668;2022-11-06T01:55:42;17.55;;;8.13;;
71777;SDS011;59609;52.430;4.668;2022-11-06T01:58:10;13.98;;;6.97;;
71777;SDS011;59609;52.430;4.668;2022-11-06T02:00:39;12.23;;;6.72;;
71777;SDS011;59609;52.430;4.668;2022-11-06T02:03:05;13.98;;;7.60;;
71777;SDS011;59609;52.430;4.668;2022-11-06T02:05:31;16.98;;;7.65;;
71777;SDS011;59609;52.430;4.668;2022-11-06T02:07:56;19.00;;;8.18;;
71777;SDS011;59609;52.430;4.668;2022-11-06T02:10:24;13.23;;;7.35;;
71777;SDS011;59609;52.430;4.668;2022-11-06T02:12:52;15.00;;;8.23;;
71777;SDS011;59609;52.430;4.668;2022-11-06T02:21:10;17.52;;;8.45;;
71777;SDS011;59609;52.430;4.668;2022-11-06T02:26:30;11.32;;;6.40;;
71777;SDS011;59609;52.430;4.668;2022-11-06T02:29:14;15.45;;;7.90;;
71777;SDS011;59609;52.430;4.668;2022-11-06T02:31:44;12.88;;;7.60;;
71777;SDS011;59609;52.430;4.668;2022-11-06T02:34:13;11.98;;;7.35;;
71777;SDS011;59609;52.430;4.668;2022-11-06T02:36:48;17.27;;;7.35;;
71777;SDS011;59609;52.430;4.668;2022-11-06T02:39:19;11.13;;;6.05;;
71777;SDS011;59609;52.430;4.668;2022-11-06T02:41:48;11.20;;;6.60;;
71777;SDS011;59609;52.430;4.668;2022-11-06T02:44:18;11.00;;;6.97;;
71777;SDS011;59609;52.430;4.668;2022-11-06T02:46:59;16.67;;;7.10;;
71777;SDS011;59609;52.430;4.668;2022-11-06T02:49:39;10.05;;;6.75;;
71777;SDS011;59609;52.430;4.668;2022-11-06T02:52:20;9.63;;;6.65;;
71777;SDS011;59609;52.430;4.668;2022-11-06T02:55:10;12.05;;;7.55;;
71777;SDS011;59609;52.430;4.668;2022-11-06T02:57:40;12.75;;;7.93;;
71777;SDS011;59609;52.430;4.668;2022-11-06T03:00:11;7.95;;;6.28;;
71777;SDS011;59609;52.430;4.668;2022-11-06T03:02:59;13.50;;;7.53;;
71777;SDS011;59609;52.430;4.668;2022-11-06T03:05:36;9.75;;;7.03;;
71777;SDS011;59609;52.430;4.668;2022-11-06T03:08:09;9.82;;;5.97;;
71777;SDS011;59609;52.430;4.668;2022-11-06T03:13:23;11.02;;;7.68;;
71777;SDS011;59609;52.430;4.668;2022-11-06T03:15:57;8.73;;;6.55;;
71777;SDS011;59609;52.430;4.668;2022-11-06T03:21:02;11.57;;;7.40;;
71777;SDS011;59609;52.430;4.668;2022-11-06T03:23:35;14.43;;;7.60;;
71777;SDS011;59609;52.430;4.668;2022-11-06T03:28:38;11.93;;;7.45;;
71777;SDS011;59609;52.430;4.668;2022-11-06T03:31:12;13.40;;;8.07;;
71777;SDS011;59609;52.430;4.668;2022-11-06T03:33:49;10.90;;;7.35;;
71777;SDS011;59609;52.430;4.668;2022-11-06T03:36:21;11.95;;;6.60;;
71777;SDS011;59609;52.430;4.668;2022-11-06T03:38:57;12.90;;;6.85;;
71777;SDS011;59609;52.430;4.668;2022-11-06T03:41:30;14.70;;;8.35;;
71777;SDS011;59609;52.430;4.668;2022-11-06T03:44:02;11.45;;;8.40;;
71777;SDS011;59609;52.430;4.668;2022-11-06T03:46:29;11.63;;;7.40;;
71777;SDS011;59609;52.430;4.668;2022-11-06T03:49:00;10.80;;;7.50;;
71777;SDS011;59609;52.430;4.668;2022-11-06T03:51:45;12.65;;;7.80;;
71777;SDS011;59609;52.430;4.668;2022-11-06T03:54:17;16.48;;;10.75;;
71777;SDS011;59609;52.430;4.668;2022-11-06T03:56:56;19.63;;;9.95;;
71777;SDS011;59609;52.430;4.668;2022-11-06T04:01:56;16.55;;;11.70;;
71777;SDS011;59609;52.430;4.668;2022-11-06T04:04:23;14.45;;;10.77;;
71777;SDS011;59609;52.430;4.668;2022-11-06T04:06:55;21.60;;;11.98;;
71777;SDS011;59609;52.430;4.668;2022-11-06T04:09:25;22.73;;;13.98;;
71777;SDS011;59609;52.430;4.668;2022-11-06T04:12:12;20.67;;;11.70;;
71777;SDS011;59609;52.430;4.668;2022-11-06T04:14:57;19.75;;;11.65;;
71777;SDS011;59609;52.430;4.668;2022-11-06T04:17:25;15.18;;;10.63;;
71777;SDS011;59609;52.430;4.668;2022-11-06T04:19:57;21.25;;;10.90;;
71777;SDS011;59609;52.430;4.668;2022-11-06T04:31:36;25.67;;;13.25;;
71777;SDS011;59609;52.430;4.668;2022-11-06T04:34:27;25.08;;;13.88;;
71777;SDS011;59609;52.430;4.668;2022-11-06T04:37:08;22.30;;;13.05;;
71777;SDS011;59609;52.430;4.668;2022-11-06T04:39:42;22.13;;;10.68;;
71777;SDS011;59609;52.430;4.668;2022-11-06T04:42:35;24.35;;;13.13;;
71777;SDS011;59609;52.430;4.668;2022-11-06T04:45:16;22.42;;;11.73;;
71777;SDS011;59609;52.430;4.668;2022-11-06T04:47:48;24.38;;;13.45;;
71777;SDS011;59609;52.430;4.668;2022-11-06T04:50:15;25.60;;;13.63;;
71777;SDS011;59609;52.430;4.668;2022-11-06T04:52:43;27.83;;;12.13;;
71777;SDS011;59609;52.430;4.668;2022-11-06T04:55:10;27.65;;;14.68;;
71777;SDS011;59609;52.430;4.668;2022-11-06T04:57:35;27.60;;;14.20;;
71777;SDS011;59609;52.430;4.668;2022-11-06T05:00:01;21.02;;;12.07;;
71777;SDS011;59609;52.430;4.668;2022-11-06T05:02:26;23.25;;;14.13;;
71777;SDS011;59609;52.430;4.668;2022-11-06T05:04:51;24.38;;;13.13;;
71777;SDS011;59609;52.430;4.668;2022-11-06T05:07:17;28.05;;;13.70;;
71777;SDS011;59609;52.430;4.668;2022-11-06T05:09:42;29.38;;;14.48;;
71777;SDS011;59609;52.430;4.668;2022-11-06T05:12:09;26.92;;;12.05;;
71777;SDS011;59609;52.430;4.668;2022-11-06T05:14:34;27.33;;;13.25;;
71777;SDS011;59609;52.430;4.668;2022-11-06T05:17:00;20.27;;;11.55;;
71777;SDS011;59609;52.430;4.668;2022-11-06T05:19:25;19.15;;;11.48;;
71777;SDS011;59609;52.430;4.668;2022-11-06T05:21:50;26.95;;;11.70;;
71777;SDS011;59609;52.430;4.668;2022-11-06T05:24:34;20.63;;;12.07;;
71777;SDS011;59609;52.430;4.668;2022-11-06T05:27:00;17.05;;;10.27;;
71777;SDS011;59609;52.430;4.668;2022-11-06T05:29:25;20.90;;;10.88;;
71777;SDS011;59609;52.430;4.668;2022-11-06T05:31:51;14.77;;;8.50;;
71777;SDS011;59609;52.430;4.668;2022-11-06T05:34:16;18.60;;;9.20;;
71777;SDS011;59609;52.430;4.668;2022-11-06T05:36:41;18.10;;;10.02;;
71777;SDS011;59609;52.430;4.668;2022-11-06T05:39:07;24.42;;;10.10;;
71777;SDS011;59609;52.430;4.668;2022-11-06T05:41:32;22.63;;;9.88;;
71777;SDS011;59609;52.430;4.668;2022-11-06T05:43:58;19.35;;;9.93;;
71777;SDS011;59609;52.430;4.668;2022-11-06T05:46:23;17.55;;;10.52;;
71777;SDS011;59609;52.430;4.668;2022-11-06T05:48:48;16.20;;;9.10;;
71777;SDS011;59609;52.430;4.668;2022-11-06T05:51:14;23.00;;;10.48;;
71777;SDS011;59609;52.430;4.668;2022-11-06T05:53:39;16.60;;;8.60;;
71777;SDS011;59609;52.430;4.668;2022-11-06T05:56:05;19.30;;;9.25;;
71777;SDS011;59609;52.430;4.668;2022-11-06T05:58:31;15.35;;;8.40;;
71777;SDS011;59609;52.430;4.668;2022-11-06T06:00:56;16.95;;;10.98;;
71777;SDS011;59609;52.430;4.668;2022-11-06T06:03:23;14.73;;;8.02;;
71777;SDS011;59609;52.430;4.668;2022-11-06T06:05:49;17.33;;;9.35;;
71777;SDS011;59609;52.430;4.668;2022-11-06T06:08:15;16.40;;;9.50;;
71777;SDS011;59609;52.430;4.668;2022-11-06T06:10:44;15.85;;;8.32;;
71777;SDS011;59609;52.430;4.668;2022-11-06T06:13:10;14.73;;;8.43;;
71777;SDS011;59609;52.430;4.668;2022-11-06T06:15:36;16.80;;;8.13;;
71777;SDS011;59609;52.430;4.668;2022-11-06T06:18:02;15.75;;;8.43;;
71777;SDS011;59609;52.430;4.668;2022-11-06T06:20:28;14.80;;;8.75;;
71777;SDS011;59609;52.430;4.668;2022-11-06T06:22:54;20.48;;;8.90;;
71777;SDS011;59609;52.430;4.668;2022-11-06T06:25:20;14.00;;;7.13;;
71777;SDS011;59609;52.430;4.668;2022-11-06T06:27:45;18.02;;;9.00;;
71777;SDS011;59609;52.430;4.668;2022-11-06T06:30:11;15.15;;;7.53;;
71777;SDS011;59609;52.430;4.668;2022-11-06T06:32:36;16.40;;;8.52;;
71777;SDS011;59609;52.430;4.668;2022-11-06T06:35:02;17.98;;;7.93;;
71777;SDS011;59609;52.430;4.668;2022-11-06T06:37:27;13.63;;;7.43;;
71777;SDS011;59609;52.430;4.668;2022-11-06T06:39:52;14.38;;;7.25;;
71777;SDS011;59609;52.430;4.668;2022-11-06T06:42:18;18.50;;;8.95;;
71777;SDS011;59609;52.430;4.668;2022-11-06T06:44:43;12.27;;;6.18;;
71777;SDS011;59609;52.430;4.668;2022-11-06T06:47:08;11.77;;;7.03;;
71777;SDS011;59609;52.430;4.668;2022-11-06T06:49:34;12.48;;;7.63;;
71777;SDS011;59609;52.430;4.668;2022-11-06T06:52:00;13.77;;;7.22;;
71777;SDS011;59609;52.430;4.668;2022-11-06T06:54:25;11.15;;;6.00;;
71777;SDS011;59609;52.430;4.668;2022-11-06T06:56:51;11.23;;;6.35;;
71777;SDS011;59609;52.430;4.668;2022-11-06T06:59:16;9.27;;;6.18;;
71777;SDS011;59609;52.430;4.668;2022-11-06T07:01:41;10.13;;;6.00;;
71777;SDS011;59609;52.430;4.668;2022-11-06T07:04:07;9.93;;;6.38;;
71777;SDS011;59609;52.430;4.668;2022-11-06T07:06:34;10.85;;;6.03;;
71777;SDS011;59609;52.430;4.668;2022-11-06T07:08:59;11.93;;;6.53;;
71777;SDS011;59609;52.430;4.668;2022-11-06T07:11:24;10.15;;;7.10;;
71777;SDS011;59609;52.430;4.668;2022-11-06T07:13:50;11.60;;;6.57;;
71777;SDS011;59609;52.430;4.668;2022-11-06T07:16:15;12.60;;;5.68;;
71777;SDS011;59609;52.430;4.668;2022-11-06T07:18:41;7.20;;;5.70;;
71777;SDS011;59609;52.430;4.668;2022-11-06T07:21:10;8.65;;;4.72;;
71777;SDS011;59609;52.430;4.668;2022-11-06T07:23:36;12.25;;;6.93;;
71777;SDS011;59609;52.430;4.668;2022-11-06T07:26:02;10.27;;;5.10;;
71777;SDS011;59609;52.430;4.668;2022-11-06T07:28:28;11.98;;;5.10;;
71777;SDS011;59609;52.430;4.668;2022-11-06T07:30:57;8.85;;;4.82;;
71777;SDS011;59609;52.430;4.668;2022-11-06T07:33:24;9.70;;;5.70;;
71777;SDS011;59609;52.430;4.668;2022-11-06T07:35:49;9.00;;;5.80;;
71777;SDS011;59609;52.430;4.668;2022-11-06T07:38:15;10.50;;;6.13;;
71777;SDS011;59609;52.430;4.668;2022-11-06T07:40:40;10.27;;;6.60;;
71777;SDS011;59609;52.430;4.668;2022-11-06T07:43:06;14.00;;;6.55;;
71777;SDS011;59609;52.430;4.668;2022-11-06T07:45:33;11.63;;;7.03;;
71777;SDS011;59609;52.430;4.668;2022-11-06T07:47:58;14.45;;;7.50;;
71777;SDS011;59609;52.430;4.668;2022-11-06T07:50:24;11.80;;;6.00;;
71777;SDS011;59609;52.430;4.668;2022-11-06T07:52:51;10.82;;;7.80;;
71777;SDS011;59609;52.430;4.668;2022-11-06T07:55:16;12.93;;;6.97;;
71777;SDS011;59609;52.430;4.668;2022-11-06T07:57:41;8.68;;;4.88;;
71777;SDS011;59609;52.430;4.668;2022-11-06T08:00:07;15.93;;;6.03;;
71777;SDS011;59609;52.430;4.668;2022-11-06T08:02:33;10.52;;;6.15;;
71777;SDS011;59609;52.430;4.668;2022-11-06T08:04:59;8.48;;;5.88;;
71777;SDS011;59609;52.430;4.668;2022-11-06T08:07:24;11.75;;;6.13;;
71777;SDS011;59609;52.430;4.668;2022-11-06T08:09:49;14.07;;;5.97;;
71777;SDS011;59609;52.430;4.668;2022-11-06T08:12:15;12.48;;;5.13;;
71777;SDS011;59609;52.430;4.668;2022-11-06T08:14:40;11.27;;;5.22;;
71777;SDS011;59609;52.430;4.668;2022-11-06T08:17:05;6.25;;;4.63;;
71777;SDS011;59609;52.430;4.668;2022-11-06T08:19:31;11.93;;;5.32;;
71777;SDS011;59609;52.430;4.668;2022-11-06T08:21:56;8.25;;;4.40;;
71777;SDS011;59609;52.430;4.668;2022-11-06T08:24:22;10.48;;;3.90;;
71777;SDS011;59609;52.430;4.668;2022-11-06T08:26:47;7.97;;;4.63;;
71777;SDS011;59609;52.430;4.668;2022-11-06T08:29:13;7.28;;;3.25;;
71777;SDS011;59609;52.430;4.668;2022-11-06T08:31:39;8.32;;;3.80;;
71777;SDS011;59609;52.430;4.668;2022-11-06T08:34:04;10.60;;;3.17;;
71777;SDS011;59609;52.430;4.668;2022-11-06T08:36:30;10.52;;;2.92;;
71777;SDS011;59609;52.430;4.668;2022-11-06T08:38:56;7.10;;;2.78;;
71777;SDS011;59609;52.430;4.668;2022-11-06T08:41:21;9.45;;;4.15;;
71777;SDS011;59609;52.430;4.668;2022-11-06T08:43:49;12.88;;;4.00;;
71777;SDS011;59609;52.430;4.668;2022-11-06T08:46:15;9.85;;;3.63;;
71777;SDS011;59609;52.430;4.668;2022-11-06T08:48:41;7.28;;;3.22;;
71777;SDS011;59609;52.430;4.668;2022-11-06T08:51:06;9.15;;;3.50;;
71777;SDS011;59609;52.430;4.668;2022-11-06T08:53:31;10.43;;;3.42;;
71777;SDS011;59609;52.430;4.668;2022-11-06T08:55:57;7.85;;;3.47;;
71777;SDS011;59609;52.430;4.668;2022-11-06T08:58:22;5.68;;;3.10;;
71777;SDS011;59609;52.430;4.668;2022-11-06T09:00:48;14.70;;;3.88;;
71777;SDS011;59609;52.430;4.668;2022-11-06T09:03:14;8.20;;;3.70;;
71777;SDS011;59609;52.430;4.668;2022-11-06T09:05:41;8.80;;;3.10;;
71777;SDS011;59609;52.430;4.668;2022-11-06T09:08:08;7.53;;;3.65;;
71777;SDS011;59609;52.430;4.668;2022-11-06T09:10:35;9.75;;;3.28;;
71777;SDS011;59609;52.430;4.668;2022-11-06T09:13:01;7.10;;;3.05;;
71777;SDS011;59609;52.430;4.668;2022-11-06T09:15:27;8.13;;;3.78;;
71777;SDS011;59609;52.430;4.668;2022-11-06T09:17:52;6.43;;;3.35;;
71777;SDS011;59609;52.430;4.668;2022-11-06T09:20:18;8.55;;;3.13;;
71777;SDS011;59609;52.430;4.668;2022-11-06T09:22:46;10.68;;;4.10;;
71777;SDS011;59609;52.430;4.668;2022-11-06T09:25:12;6.75;;;3.72;;
71777;SDS011;59609;52.430;4.668;2022-11-06T09:27:42;12.40;;;3.55;;
71777;SDS011;59609;52.430;4.668;2022-11-06T09:30:12;10.25;;;3.15;;
71777;SDS011;59609;52.430;4.668;2022-11-06T09:32:46;10.98;;;2.90;;
71777;SDS011;59609;52.430;4.668;2022-11-06T09:35:13;8.95;;;2.90;;
71777;SDS011;59609;52.430;4.668;2022-11-06T09:37:39;8.65;;;3.03;;
71777;SDS011;59609;52.430;4.668;2022-11-06T09:40:05;3.58;;;2.55;;
71777;SDS011;59609;52.430;4.668;2022-11-06T09:42:44;7.13;;;3.03;;
71777;SDS011;59609;52.430;4.668;2022-11-06T09:45:33;5.40;;;2.85;;
71777;SDS011;59609;52.430;4.668;2022-11-06T09:50:36;4.45;;;3.03;;
71777;SDS011;59609;52.430;4.668;2022-11-06T09:53:23;6.10;;;2.75;;
71777;SDS011;59609;52.430;4.668;2022-11-06T09:55:54;8.60;;;3.95;;
71777;SDS011;59609;52.430;4.668;2022-11-06T09:58:24;6.97;;;3.30;;
71777;SDS011;59609;52.430;4.668;2022-11-06T10:00:54;10.70;;;4.53;;
71777;SDS011;59609;52.430;4.668;2022-11-06T10:05:54;10.93;;;4.00;;
71777;SDS011;59609;52.430;4.668;2022-11-06T10:08:20;8.35;;;3.00;;
71777;SDS011;59609;52.430;4.668;2022-11-06T10:22:34;6.03;;;3.13;;
71777;SDS011;59609;52.430;4.668;2022-11-06T10:24:57;7.45;;;3.05;;
71777;SDS011;59609;52.430;4.668;2022-11-06T10:30:03;8.53;;;3.10;;
71777;SDS011;59609;52.430;4.668;2022-11-06T10:35:31;12.32;;;3.05;;
71777;SDS011;59609;52.430;4.668;2022-11-06T10:38:11;8.95;;;3.00;;
71777;SDS011;59609;52.430;4.668;2022-11-06T10:48:33;8.13;;;2.78;;
71777;SDS011;59609;52.430;4.668;2022-11-06T10:56:53;19.45;;;3.25;;
71777;SDS011;59609;52.430;4.668;2022-11-06T10:59:30;5.60;;;2.85;;
71777;SDS011;59609;52.430;4.668;2022-11-06T11:01:56;6.57;;;2.63;;
71777;SDS011;59609;52.430;4.668;2022-11-06T11:04:21;4.47;;;2.83;;
71777;SDS011;59609;52.430;4.668;2022-11-06T11:06:47;9.65;;;3.15;;
71777;SDS011;59609;52.430;4.668;2022-11-06T11:09:26;9.48;;;2.22;;
71777;SDS011;59609;52.430;4.668;2022-11-06T11:11:56;4.57;;;2.40;;
71777;SDS011;59609;52.430;4.668;2022-11-06T11:14:26;4.25;;;3.10;;
71777;SDS011;59609;52.430;4.668;2022-11-06T11:16:54;3.92;;;3.00;;
71777;SDS011;59609;52.430;4.668;2022-11-06T11:22:16;6.05;;;2.75;;
71777;SDS011;59609;52.430;4.668;2022-11-06T11:25:00;7.40;;;2.58;;
71777;SDS011;59609;52.430;4.668;2022-11-06T11:27:37;9.75;;;3.38;;
71777;SDS011;59609;52.430;4.668;2022-11-06T11:30:10;5.55;;;2.67;;
71777;SDS011;59609;52.430;4.668;2022-11-06T11:32:50;6.93;;;3.50;;
71777;SDS011;59609;52.430;4.668;2022-11-06T11:35:17;6.18;;;3.10;;
71777;SDS011;59609;52.430;4.668;2022-11-06T11:37:49;4.53;;;2.95;;
71777;SDS011;59609;52.430;4.668;2022-11-06T11:40:28;8.32;;;4.00;;
71777;SDS011;59609;52.430;4.668;2022-11-06T11:43:42;10.80;;;4.05;;
71777;SDS011;59609;52.430;4.668;2022-11-06T11:48:42;4.60;;;3.65;;
71777;SDS011;59609;52.430;4.668;2022-11-06T11:54:00;5.50;;;3.55;;
71777;SDS011;59609;52.430;4.668;2022-11-06T11:56:28;5.45;;;4.05;;
71777;SDS011;59609;52.430;4.668;2022-11-06T11:58:56;7.20;;;4.32;;
71777;SDS011;59609;52.430;4.668;2022-11-06T12:01:34;7.43;;;4.07;;
71777;SDS011;59609;52.430;4.668;2022-11-06T12:04:12;4.82;;;3.40;;
71777;SDS011;59609;52.430;4.668;2022-11-06T12:07:00;4.63;;;3.20;;
71777;SDS011;59609;52.430;4.668;2022-11-06T12:09:30;6.53;;;3.42;;
71777;SDS011;59609;52.430;4.668;2022-11-06T12:12:00;7.90;;;4.75;;
71777;SDS011;59609;52.430;4.668;2022-11-06T12:16:53;4.05;;;3.20;;
71777;SDS011;59609;52.430;4.668;2022-11-06T12:19:22;3.90;;;2.33;;
71777;SDS011;59609;52.430;4.668;2022-11-06T12:21:51;5.53;;;2.63;;
71777;SDS011;59609;52.430;4.668;2022-11-06T12:24:34;7.93;;;2.88;;
71777;SDS011;59609;52.430;4.668;2022-11-06T12:27:09;8.60;;;2.13;;
71777;SDS011;59609;52.430;4.668;2022-11-06T12:29:55;5.03;;;2.05;;
71777;SDS011;59609;52.430;4.668;2022-11-06T12:35:24;10.60;;;4.32;;
71777;SDS011;59609;52.430;4.668;2022-11-06T12:37:56;9.65;;;2.20;;
71777;SDS011;59609;52.430;4.668;2022-11-06T12:40:37;6.75;;;2.85;;
71777;SDS011;59609;52.430;4.668;2022-11-06T12:56:31;6.15;;;2.70;;
71777;SDS011;59609;52.430;4.668;2022-11-06T13:10:52;2.88;;;2.33;;
71777;SDS011;59609;52.430;4.668;2022-11-06T13:13:33;12.35;;;3.20;;
71777;SDS011;59609;52.430;4.668;2022-11-06T13:16:18;6.00;;;3.40;;
71777;SDS011;59609;52.430;4.668;2022-11-06T13:19:16;4.25;;;2.53;;
71777;SDS011;59609;52.430;4.668;2022-11-06T13:24:26;8.02;;;2.90;;
71777;SDS011;59609;52.430;4.668;2022-11-06T13:27:00;6.40;;;2.95;;
71777;SDS011;59609;52.430;4.668;2022-11-06T13:29:28;3.45;;;2.38;;
71777;SDS011;59609;52.430;4.668;2022-11-06T13:31:55;5.13;;;3.10;;
71777;SDS011;59609;52.430;4.668;2022-11-06T13:34:33;5.47;;;2.10;;
71777;SDS011;59609;52.430;4.668;2022-11-06T13:37:02;6.28;;;2.40;;
71777;SDS011;59609;52.430;4.668;2022-11-06T13:39:36;3.70;;;2.35;;
71777;SDS011;59609;52.430;4.668;2022-11-06T13:44:37;5.95;;;3.20;;
71777;SDS011;59609;52.430;4.668;2022-11-06T13:47:26;9.52;;;3.22;;
71777;SDS011;59609;52.430;4.668;2022-11-06T13:55:53;4.10;;;2.58;;
71777;SDS011;59609;52.430;4.668;2022-11-06T14:06:26;6.80;;;3.10;;
71777;SDS011;59609;52.430;4.668;2022-11-06T14:08:55;7.13;;;2.53;;
71777;SDS011;59609;52.430;4.668;2022-11-06T14:11:30;4.63;;;2.65;;
71777;SDS011;59609;52.430;4.668;2022-11-06T14:16:49;7.00;;;3.22;;
71777;SDS011;59609;52.430;4.668;2022-11-06T14:19:39;8.50;;;3.33;;
71777;SDS011;59609;52.430;4.668;2022-11-06T14:22:35;9.13;;;4.35;;
71777;SDS011;59609;52.430;4.668;2022-11-06T14:32:55;7.57;;;3.55;;
71777;SDS011;59609;52.430;4.668;2022-11-06T14:40:39;6.25;;;3.03;;
71777;SDS011;59609;52.430;4.668;2022-11-06T14:43:17;3.65;;;3.03;;
71777;SDS011;59609;52.430;4.668;2022-11-06T14:45:49;5.28;;;3.05;;
71777;SDS011;59609;52.430;4.668;2022-11-06T14:48:24;8.80;;;3.10;;
71777;SDS011;59609;52.430;4.668;2022-11-06T14:50:55;4.55;;;2.92;;
71777;SDS011;59609;52.430;4.668;2022-11-06T14:53:23;7.68;;;3.22;;
71777;SDS011;59609;52.430;4.668;2022-11-06T14:55:57;4.88;;;2.67;;
71777;SDS011;59609;52.430;4.668;2022-11-06T15:03:50;3.08;;;2.60;;
71777;SDS011;59609;52.430;4.668;2022-11-06T15:06:38;2.72;;;2.20;;
71777;SDS011;59609;52.430;4.668;2022-11-06T15:11:49;2.40;;;2.20;;
71777;SDS011;59609;52.430;4.668;2022-11-06T15:16:47;3.88;;;2.65;;
71777;SDS011;59609;52.430;4.668;2022-11-06T15:27:37;2.88;;;2.58;;
71777;SDS011;59609;52.430;4.668;2022-11-06T15:30:08;2.40;;;2.20;;
71777;SDS011;59609;52.430;4.668;2022-11-06T15:32:40;2.80;;;2.60;;
71777;SDS011;59609;52.430;4.668;2022-11-06T15:37:42;3.35;;;3.05;;
71777;SDS011;59609;52.430;4.668;2022-11-06T15:40:23;2.88;;;2.63;;
71777;SDS011;59609;52.430;4.668;2022-11-06T15:43:06;3.75;;;3.30;;
71777;SDS011;59609;52.430;4.668;2022-11-06T15:45:46;9.65;;;3.67;;
71777;SDS011;59609;52.430;4.668;2022-11-06T15:48:26;5.03;;;3.80;;
71777;SDS011;59609;52.430;4.668;2022-11-06T15:50:51;7.43;;;3.33;;
71777;SDS011;59609;52.430;4.668;2022-11-06T15:53:19;4.28;;;3.15;;
71777;SDS011;59609;52.430;4.668;2022-11-06T16:00:55;6.38;;;2.83;;
71777;SDS011;59609;52.430;4.668;2022-11-06T16:03:21;3.03;;;2.50;;
71777;SDS011;59609;52.430;4.668;2022-11-06T16:05:48;3.95;;;2.83;;
71777;SDS011;59609;52.430;4.668;2022-11-06T16:08:15;3.25;;;2.88;;
71777;SDS011;59609;52.430;4.668;2022-11-06T16:10:43;4.38;;;3.35;;
71777;SDS011;59609;52.430;4.668;2022-11-06T16:13:12;3.80;;;3.13;;
71777;SDS011;59609;52.430;4.668;2022-11-06T16:18:27;4.70;;;3.30;;
71777;SDS011;59609;52.430;4.668;2022-11-06T16:20:59;5.28;;;2.78;;
71777;SDS011;59609;52.430;4.668;2022-11-06T16:26:03;4.38;;;3.08;;
71777;SDS011;59609;52.430;4.668;2022-11-06T16:28:48;7.22;;;3.60;;
71777;SDS011;59609;52.430;4.668;2022-11-06T16:31:15;4.20;;;3.72;;
71777;SDS011;59609;52.430;4.668;2022-11-06T16:36:18;6.07;;;4.90;;
71777;SDS011;59609;52.430;4.668;2022-11-06T16:38:43;4.43;;;3.03;;
71777;SDS011;59609;52.430;4.668;2022-11-06T16:41:10;3.90;;;2.88;;
71777;SDS011;59609;52.430;4.668;2022-11-06T16:49:44;4.90;;;3.15;;
71777;SDS011;59609;52.430;4.668;2022-11-06T16:57:34;4.38;;;3.35;;
71777;SDS011;59609;52.430;4.668;2022-11-06T17:02:45;4.75;;;3.85;;
71777;SDS011;59609;52.430;4.668;2022-11-06T17:07:38;3.97;;;3.13;;
71777;SDS011;59609;52.430;4.668;2022-11-06T17:10:23;3.67;;;3.20;;
71777;SDS011;59609;52.430;4.668;2022-11-06T17:12:59;7.63;;;3.50;;
71777;SDS011;59609;52.430;4.668;2022-11-06T17:15:31;3.75;;;3.33;;
71777;SDS011;59609;52.430;4.668;2022-11-06T17:17:56;5.68;;;3.55;;
71777;SDS011;59609;52.430;4.668;2022-11-06T17:20:22;6.68;;;3.90;;
71777;SDS011;59609;52.430;4.668;2022-11-06T17:22:47;4.10;;;3.67;;
71777;SDS011;59609;52.430;4.668;2022-11-06T17:25:13;3.90;;;3.53;;
71777;SDS011;59609;52.430;4.668;2022-11-06T17:27:39;5.93;;;4.38;;
71777;SDS011;59609;52.430;4.668;2022-11-06T17:30:04;5.57;;;4.38;;
71777;SDS011;59609;52.430;4.668;2022-11-06T17:32:31;4.70;;;4.05;;
71777;SDS011;59609;52.430;4.668;2022-11-06T17:34:57;5.57;;;3.65;;
71777;SDS011;59609;52.430;4.668;2022-11-06T17:37:22;3.92;;;3.63;;
71777;SDS011;59609;52.430;4.668;2022-11-06T17:39:49;4.80;;;3.80;;
71777;SDS011;59609;52.430;4.668;2022-11-06T17:42:14;4.35;;;3.55;;
71777;SDS011;59609;52.430;4.668;2022-11-06T17:44:39;5.05;;;4.07;;
71777;SDS011;59609;52.430;4.668;2022-11-06T17:47:05;11.02;;;5.32;;
71777;SDS011;59609;52.430;4.668;2022-11-06T17:49:30;6.60;;;4.22;;
71777;SDS011;59609;52.430;4.668;2022-11-06T17:51:56;7.32;;;4.85;;
71777;SDS011;59609;52.430;4.668;2022-11-06T17:54:25;4.38;;;3.67;;
71777;SDS011;59609;52.430;4.668;2022-11-06T17:56:52;5.05;;;4.63;;
71777;SDS011;59609;52.430;4.668;2022-11-06T17:59:19;5.57;;;4.60;;
71777;SDS011;59609;52.430;4.668;2022-11-06T18:01:45;6.40;;;5.47;;
71777;SDS011;59609;52.430;4.668;2022-11-06T18:04:11;7.47;;;4.63;;
71777;SDS011;59609;52.430;4.668;2022-11-06T18:06:37;8.93;;;5.68;;